Time;durP1;ratioP1;P1;durP2;ratioP2;P2;SDS_P1;SDS_P2;PMS_P1;PMS_P2;Temp;Humidity;BMP_temperature;BMP_pressure;BME280_temperature;BME280_humidity;BME280_pressure;Samples;Min_cycle;Max_cycle;Signal;HPM_P1;HPM_P2
2022/06/22 04:06:56;;;;;;;4.13;3.83;;;20.20;99.90;;;;;;4991001;28;20806;-70
2022/06/22 04:09:25;;;;;;;4.27;3.97;;;20.20;99.90;;;;;;4993407;28;20509;-70
2022/06/22 04:12:10;;;;;;;5.77;4.87;;;20.20;99.90;;;;;;4993477;28;20402;-71
2022/06/22 04:14:45;;;;;;;4.73;4.33;;;20.30;99.90;;;;;;4993872;28;20436;-70
2022/06/22 04:17:27;;;;;;;6.00;4.13;;;20.40;99.90;;;;;;4993228;28;20983;-70
2022/06/22 04:20:15;;;;;;;4.33;3.93;;;20.50;99.90;;;;;;4995317;28;20410;-70
2022/06/22 04:22:44;;;;;;;5.20;4.70;;;20.60;99.90;;;;;;4988348;28;20446;-70
2022/06/22 04:25:30;;;;;;;4.90;4.50;;;20.70;99.90;;;;;;4996496;28;20517;-70
2022/06/22 04:28:02;;;;;;;4.67;4.27;;;20.80;99.90;;;;;;4996916;28;20768;-70
2022/06/22 04:30:32;;;;;;;5.17;4.67;;;20.80;99.90;;;;;;4996394;28;20377;-70
2022/06/22 04:33:23;;;;;;;7.70;7.10;;;20.90;99.90;;;;;;4995530;28;20432;-70
2022/06/22 04:35:54;;;;;;;5.50;4.63;;;21.00;99.90;;;;;;4995680;28;20810;-70
2022/06/22 04:38:38;;;;;;;4.17;3.80;;;21.00;99.90;;;;;;4996392;28;20441;-70
2022/06/22 04:41:20;;;;;;;5.63;4.80;;;21.10;99.90;;;;;;4996639;28;20402;-70
2022/06/22 04:43:47;;;;;;;7.80;5.10;;;21.10;99.90;;;;;;4996067;28;20556;-70
2022/06/22 04:46:19;;;;;;;5.30;4.90;;;21.10;99.90;;;;;;4996257;28;20838;-71
2022/06/22 04:48:47;;;;;;;4.30;3.93;;;21.10;99.90;;;;;;4996676;28;20493;-71
2022/06/22 04:51:19;;;;;;;4.70;4.30;;;21.10;99.90;;;;;;4995902;28;20780;-71
2022/06/22 04:54:24;;;;;;;5.07;4.67;;;21.30;99.90;;;;;;4994817;28;20518;-74
2022/06/22 04:56:53;;;;;;;4.47;4.07;;;21.40;99.90;;;;;;4996179;28;20504;-71
2022/06/22 04:59:19;;;;;;;4.27;3.97;;;21.50;99.90;;;;;;4996137;28;20490;-70
2022/06/22 05:01:52;;;;;;;5.40;4.90;;;21.50;99.90;;;;;;4994701;28;20881;-70
2022/06/22 05:04:20;;;;;;;5.77;5.00;;;21.60;99.90;;;;;;4993770;28;20526;-71
2022/06/22 05:07:20;;;;;;;5.03;4.23;;;21.70;99.90;;;;;;4995793;28;20405;-70
2022/06/22 05:10:00;;;;;;;5.93;5.00;;;21.80;99.90;;;;;;4995858;28;20883;-70
2022/06/22 05:12:29;;;;;;;5.00;4.60;;;21.80;99.90;;;;;;4990562;28;20405;-71
2022/06/22 05:14:57;;;;;;;4.67;4.03;;;21.80;99.90;;;;;;4989865;28;20825;-70
2022/06/22 05:17:30;;;;;;;4.90;4.40;;;21.80;99.90;;;;;;4977966;28;20729;-69
2022/06/22 05:20:18;;;;;;;5.13;4.60;;;21.90;99.90;;;;;;4981495;28;20405;-71
2022/06/22 05:22:44;;;;;;;4.60;4.20;;;21.90;99.90;;;;;;4993902;28;20436;-68
2022/06/22 05:25:12;;;;;;;5.00;4.60;;;21.90;99.90;;;;;;4976022;28;20424;-71
2022/06/22 05:28:04;;;;;;;4.53;4.10;;;22.00;99.90;;;;;;4975988;28;20483;-68
2022/06/22 05:30:38;;;;;;;5.57;5.10;;;22.10;99.90;;;;;;4994497;28;20403;-71
2022/06/22 05:33:14;;;;;;;8.07;5.40;;;22.30;99.90;;;;;;4988089;28;20394;-69
2022/06/22 05:35:45;;;;;;;5.50;5.10;;;22.40;99.90;;;;;;4981010;28;20539;-72
2022/06/22 05:38:12;;;;;;;5.17;4.67;;;22.50;99.90;;;;;;4977376;28;20738;-71
2022/06/22 05:40:40;;;;;;;5.20;4.80;;;22.70;99.90;;;;;;4993237;28;20402;-73
2022/06/22 05:43:07;;;;;;;3.70;3.40;;;22.90;99.90;;;;;;4994462;28;20387;-75
2022/06/22 05:45:46;;;;;;;5.40;5.00;;;23.10;99.90;;;;;;4994261;28;20964;-72
2022/06/22 05:48:17;;;;;;;8.67;7.73;;;23.30;99.90;;;;;;4994479;28;20483;-73
2022/06/22 05:51:07;;;;;;;7.67;5.90;;;23.40;99.90;;;;;;4994899;28;20411;-74
2022/06/22 05:53:41;;;;;;;4.60;4.30;;;23.60;99.90;;;;;;4993522;28;20489;-73
2022/06/22 05:56:22;;;;;;;5.47;5.00;;;23.80;99.90;;;;;;4993757;28;20535;-74
2022/06/22 05:59:15;;;;;;;5.77;5.20;;;23.80;99.90;;;;;;4994979;28;20430;-74
2022/06/22 06:01:50;;;;;;;6.40;5.37;;;23.90;99.90;;;;;;4994589;28;20404;-73
2022/06/22 06:04:21;;;;;;;5.30;4.90;;;23.90;99.90;;;;;;4993011;28;20429;-74
2022/06/22 06:06:48;;;;;;;6.27;5.63;;;23.80;99.90;;;;;;4993539;28;20408;-75
2022/06/22 06:09:21;;;;;;;5.70;5.20;;;23.80;99.90;;;;;;4994554;28;20425;-73
2022/06/22 06:12:14;;;;;;;5.40;4.90;;;23.80;99.90;;;;;;4987525;28;20425;-73
2022/06/22 06:14:45;;;;;;;4.80;4.47;;;23.70;99.90;;;;;;4980145;28;20451;-75
2022/06/22 06:17:19;;;;;;;4.90;4.40;;;23.60;99.90;;;;;;4975451;28;20455;-72
2022/06/22 06:19:50;;;;;;;4.80;4.40;;;23.60;99.90;;;;;;4975355;28;20378;-73
2022/06/22 06:22:17;;;;;;;4.30;4.00;;;23.70;99.90;;;;;;4974487;28;20941;-73
2022/06/22 06:27:43;;;;;;;6.00;5.50;;;23.70;99.90;;;;;;4975419;28;20455;-73
2022/06/22 06:30:37;;;;;;;7.57;5.43;;;23.70;99.90;;;;;;4974718;28;20412;-74
2022/06/22 06:33:32;;;;;;;5.93;5.43;;;23.60;99.90;;;;;;4973270;28;20424;-74
2022/06/22 06:36:19;;;;;;;6.20;5.60;;;23.70;99.90;;;;;;4973365;28;20461;-74
2022/06/22 06:38:59;;;;;;;5.07;4.67;;;23.70;99.90;;;;;;4974867;28;20418;-73
2022/06/22 06:41:33;;;;;;;7.70;5.50;;;23.60;99.90;;;;;;4974861;28;20773;-75
2022/06/22 06:44:21;;;;;;;6.40;5.17;;;23.70;99.90;;;;;;4974195;28;20837;-74
2022/06/22 06:46:53;;;;;;;7.30;6.60;;;23.70;99.90;;;;;;4974817;28;20411;-73
2022/06/22 06:49:34;;;;;;;9.57;8.63;;;23.70;99.90;;;;;;4974449;28;20384;-73
2022/06/22 06:52:08;;;;;;;6.80;5.70;;;23.80;99.90;;;;;;4974553;28;20418;-74
2022/06/22 06:54:46;;;;;;;7.50;6.80;;;23.90;99.90;;;;;;4973235;28;20415;-74
2022/06/22 06:57:16;;;;;;;6.47;5.90;;;23.90;99.90;;;;;;4974520;28;20817;-74
2022/06/22 06:59:44;;;;;;;8.20;6.37;;;24.00;99.90;;;;;;4974494;28;20383;-73
2022/06/22 07:02:33;;;;;;;6.77;6.20;;;23.90;99.90;;;;;;4974179;28;20410;-73
2022/06/22 07:05:01;;;;;;;6.03;5.53;;;24.00;99.90;;;;;;4974599;28;20430;-74
2022/06/22 07:07:58;;;;;;;6.90;5.90;;;23.90;99.90;;;;;;4974527;28;20420;-75
2022/06/22 07:10:34;;;;;;;6.80;6.20;;;23.90;99.90;;;;;;4974322;28;20386;-75
2022/06/22 07:13:04;;;;;;;6.33;5.83;;;23.80;99.90;;;;;;4974278;28;20917;-74
2022/06/22 07:15:34;;;;;;;7.57;6.87;;;23.70;99.90;;;;;;4974215;28;20792;-75
2022/06/22 07:18:11;;;;;;;7.50;6.90;;;23.60;99.90;;;;;;4974583;28;20402;-73
2022/06/22 07:20:42;;;;;;;6.47;5.87;;;23.40;99.90;;;;;;4974505;28;20414;-71
2022/06/22 07:23:22;;;;;;;5.70;5.20;;;23.20;99.90;;;;;;4974004;28;21012;-71
2022/06/22 07:25:55;;;;;;;6.60;6.00;;;23.00;99.90;;;;;;4974484;28;20450;-71
2022/06/22 07:28:21;;;;;;;6.73;6.20;;;22.90;99.90;;;;;;4974243;28;20483;-71
2022/06/22 07:30:56;;;;;;;6.80;6.20;;;22.80;99.90;;;;;;4974340;28;20869;-72
2022/06/22 07:33:35;;;;;;;8.00;6.57;;;22.60;99.90;;;;;;4973969;28;20334;-72
2022/06/22 07:36:20;;;;;;;7.13;6.53;;;22.50;99.90;;;;;;4974184;28;20459;-71
2022/06/22 07:39:00;;;;;;;9.70;8.07;;;22.30;99.90;;;;;;4974045;28;20478;-71
2022/06/22 07:41:29;;;;;;;8.63;7.83;;;22.30;99.90;;;;;;4974595;28;20467;-71
2022/06/22 07:44:25;;;;;;;8.07;7.27;;;22.20;99.90;;;;;;4972485;28;20394;-72
2022/06/22 07:47:01;;;;;;;8.00;7.20;;;22.20;99.90;;;;;;4973256;28;20497;-72
2022/06/22 07:49:39;;;;;;;6.97;6.33;;;22.00;99.90;;;;;;4974409;28;20412;-71
2022/06/22 07:52:11;;;;;;;8.07;7.20;;;21.90;99.90;;;;;;4974042;28;20522;-72
2022/06/22 07:54:40;;;;;;;7.27;6.63;;;21.80;99.90;;;;;;4975685;28;20859;-73
2022/06/22 07:57:12;;;;;;;8.17;7.30;;;21.80;99.90;;;;;;4977937;28;20451;-72
2022/06/22 07:59:43;;;;;;;13.97;12.67;;;21.70;99.90;;;;;;4977397;28;20434;-73
2022/06/22 08:02:48;;;;;;;16.97;10.23;;;21.70;99.90;;;;;;4977748;28;20403;-71
2022/06/22 08:05:19;;;;;;;9.10;7.27;;;21.70;99.90;;;;;;4965803;28;20544;-71
2022/06/22 08:07:54;;;;;;;7.30;6.67;;;21.70;99.90;;;;;;4977813;28;20461;-71
2022/06/22 08:10:30;;;;;;;11.93;6.73;;;21.70;99.90;;;;;;4977728;28;20423;-72
2022/06/22 08:13:11;;;;;;;6.60;6.00;;;21.70;99.90;;;;;;4977413;28;20465;-68
2022/06/22 08:15:45;;;;;;;7.33;6.63;;;21.80;99.90;;;;;;4977478;28;20459;-67
2022/06/22 08:18:11;;;;;;;7.23;6.63;;;21.80;99.90;;;;;;4977510;28;20437;-71
2022/06/22 08:20:40;;;;;;;7.07;6.40;;;21.90;99.90;;;;;;4977481;28;20892;-69
2022/06/22 08:23:09;;;;;;;6.40;5.27;;;22.00;99.90;;;;;;4977003;28;20499;-72
2022/06/22 08:25:36;;;;;;;5.80;5.30;;;22.10;99.90;;;;;;4977306;28;20431;-69
2022/06/22 08:28:03;;;;;;;6.60;6.03;;;22.30;99.90;;;;;;4977430;28;20413;-71
2022/06/22 08:30:29;;;;;;;8.40;6.30;;;22.40;99.90;;;;;;4977456;28;20403;-71
2022/06/22 08:33:04;;;;;;;6.30;5.70;;;22.50;99.90;;;;;;4976801;28;20431;-72
2022/06/22 08:35:45;;;;;;;6.57;5.90;;;22.70;99.90;;;;;;4976854;28;20494;-72
2022/06/22 08:38:18;;;;;;;9.33;6.90;;;22.70;99.90;;;;;;4989512;28;20396;-72
2022/06/22 08:40:58;;;;;;;8.20;7.47;;;22.80;99.90;;;;;;4996537;28;20459;-70
2022/06/22 08:43:32;;;;;;;6.50;6.00;;;22.80;99.90;;;;;;4982320;28;20496;-72
2022/06/22 08:46:07;;;;;;;11.43;7.87;;;22.70;99.90;;;;;;4975595;28;20472;-70
2022/06/22 08:48:52;;;;;;;8.07;6.70;;;22.70;99.90;;;;;;4976827;28;20416;-72
2022/06/22 08:51:43;;;;;;;8.10;6.70;;;22.80;99.90;;;;;;4977005;28;20869;-71
2022/06/22 08:54:29;;;;;;;7.33;6.13;;;22.80;99.90;;;;;;4976198;28;20420;-70
2022/06/22 08:57:02;;;;;;;7.93;7.23;;;22.80;99.90;;;;;;4976945;28;20453;-71
2022/06/22 08:59:40;;;;;;;7.33;6.60;;;22.80;99.90;;;;;;4976572;28;20419;-68
2022/06/22 09:02:34;;;;;;;6.67;6.10;;;22.80;99.90;;;;;;4976347;28;20912;-70
2022/06/22 09:05:15;;;;;;;6.73;6.13;;;22.80;99.90;;;;;;4975970;28;20421;-71
2022/06/22 09:08:11;;;;;;;6.77;6.10;;;22.90;99.90;;;;;;4976530;28;20419;-70
2022/06/22 09:11:13;;;;;;;7.20;6.53;;;23.00;99.90;;;;;;4976527;28;20410;-71
2022/06/22 09:14:09;;;;;;;7.30;6.60;;;23.10;99.90;;;;;;4975992;28;20495;-70
2022/06/22 09:16:35;;;;;;;6.20;5.70;;;23.20;99.90;;;;;;4976015;28;20430;-70
2022/06/22 09:19:22;;;;;;;7.43;5.80;;;23.30;99.90;;;;;;4976021;28;20949;-71
2022/06/22 09:22:01;;;;;;;7.67;6.97;;;23.50;99.90;;;;;;4976090;28;20526;-71
2022/06/22 09:24:47;;;;;;;6.50;6.00;;;23.70;99.90;;;;;;4975561;28;20452;-71
2022/06/22 09:27:20;;;;;;;6.83;6.23;;;23.90;99.90;;;;;;4975000;28;20474;-71
2022/06/22 09:29:46;;;;;;;7.80;6.10;;;24.00;99.90;;;;;;4976163;28;20394;-72
2022/06/22 09:32:39;;;;;;;7.27;6.67;;;24.20;99.90;;;;;;4975557;28;20413;-71
2022/06/22 09:35:18;;;;;;;6.77;6.17;;;24.30;99.90;;;;;;4975850;28;20196;-71
2022/06/22 09:37:47;;;;;;;7.10;6.20;;;24.40;99.90;;;;;;4976642;28;20826;-73
2022/06/22 09:40:34;;;;;;;7.60;7.00;;;24.50;99.90;;;;;;4975807;28;20408;-72
2022/06/22 09:43:37;;;;;;;8.83;7.13;;;24.60;99.90;;;;;;4990475;28;20996;-72
2022/06/22 09:46:20;;;;;;;6.23;5.63;;;24.60;99.90;;;;;;4975605;28;20437;-71
2022/06/22 09:48:58;;;;;;;7.53;6.90;;;24.80;99.90;;;;;;4975729;28;20496;-74
2022/06/22 09:51:41;;;;;;;7.37;6.63;;;24.80;99.90;;;;;;4975583;28;20374;-74
2022/06/22 09:57:21;;;;;;;10.20;7.07;;;24.80;99.90;;;;;;4975655;28;20474;-71
2022/06/22 10:00:02;;;;;;;9.60;7.40;;;24.80;99.90;;;;;;4975699;28;20403;-68
2022/06/22 10:02:56;;;;;;;8.13;7.43;;;24.80;99.90;;;;;;4975189;28;20778;-70
2022/06/22 10:05:38;;;;;;;6.60;6.10;;;24.80;99.90;;;;;;4975066;28;20426;-71
2022/06/22 10:08:36;;;;;;;9.53;8.10;;;24.70;99.90;;;;;;4973363;28;20440;-71
2022/06/22 10:11:29;;;;;;;8.93;8.03;;;24.60;99.90;;;;;;4990387;28;20390;-71
2022/06/22 10:14:10;;;;;;;9.40;7.50;;;24.60;99.90;;;;;;4974974;28;20576;-71
2022/06/22 10:16:54;;;;;;;7.30;6.80;;;24.60;99.90;;;;;;4973292;28;20464;-69
2022/06/22 10:20:09;;;;;;;6.27;5.67;;;24.50;99.90;;;;;;4975258;28;20403;-68
2022/06/22 10:22:40;;;;;;;8.00;7.30;;;24.50;99.90;;;;;;4934649;29;20414;-70
2022/06/22 10:25:42;;;;;;;5.60;5.20;;;24.50;99.90;;;;;;4972184;28;20450;-71
2022/06/22 10:28:40;;;;;;;7.53;6.83;;;24.40;99.90;;;;;;4975253;28;20498;-70
2022/06/22 10:31:24;;;;;;;8.23;6.90;;;24.40;99.90;;;;;;4958309;28;20398;-71
2022/06/22 10:34:02;;;;;;;8.93;7.60;;;24.40;99.90;;;;;;4974552;28;20419;-71
2022/06/22 10:37:11;;;;;;;8.80;7.00;;;24.30;99.90;;;;;;4974908;28;20568;-71
2022/06/22 10:40:11;;;;;;;6.93;6.33;;;24.30;99.90;;;;;;4955897;28;20777;-69
2022/06/22 10:46:19;;;;;;;7.03;6.40;;;24.10;99.90;;;;;;4974740;28;20438;-68
2022/06/22 10:49:04;;;;;;;6.47;5.83;;;24.00;99.90;;;;;;4974155;28;20767;-69
2022/06/22 10:52:01;;;;;;;7.03;6.43;;;24.00;99.90;;;;;;4974818;28;20507;-72
2022/06/22 10:55:07;;;;;;;7.43;6.73;;;24.10;99.90;;;;;;4974340;28;20424;-72
2022/06/22 10:58:19;;;;;;;9.27;8.33;;;24.10;99.90;;;;;;4974590;28;20433;-72
2022/06/22 11:01:01;;;;;;;8.50;7.70;;;24.10;99.90;;;;;;4934015;29;20521;-70
2022/06/22 11:03:45;;;;;;;8.37;7.57;;;24.10;99.90;;;;;;4973492;28;20429;-70
2022/06/22 11:06:29;;;;;;;10.20;8.03;;;24.10;99.90;;;;;;4974293;28;20543;-70
2022/06/22 11:09:02;;;;;;;8.70;7.70;;;24.10;99.90;;;;;;4974461;28;20439;-68
2022/06/22 11:11:33;;;;;;;8.67;7.87;;;23.90;99.90;;;;;;4974794;28;20422;-70
2022/06/22 11:14:36;;;;;;;8.70;7.90;;;23.80;99.90;;;;;;4974050;28;20442;-69
2022/06/22 11:17:39;;;;;;;6.90;6.30;;;23.30;99.90;;;;;;4974614;28;20462;-70
2022/06/22 11:20:53;;;;;;;7.77;7.13;;;23.00;99.90;;;;;;4974845;28;20403;-70
2022/06/22 11:23:38;;;;;;;11.93;10.03;;;22.60;99.90;;;;;;4933605;29;20812;-70
2022/06/22 11:32:25;;;;;;;8.43;7.43;;;21.90;99.90;;;;;;4978376;28;20940;-70
2022/06/22 11:35:09;;;;;;;9.00;6.70;;;21.70;99.90;;;;;;4978366;28;20435;-70
2022/06/22 11:38:01;;;;;;;7.27;5.80;;;21.50;99.90;;;;;;4978308;28;20462;-69
2022/06/22 11:41:09;;;;;;;7.00;6.40;;;21.50;99.90;;;;;;4973428;28;20423;-70
2022/06/22 11:43:56;;;;;;;7.53;6.83;;;21.40;99.90;;;;;;4958835;28;20417;-70
2022/06/22 11:46:38;;;;;;;6.90;6.20;;;21.40;99.90;;;;;;4977875;28;20482;-70
2022/06/22 11:49:40;;;;;;;8.43;6.40;;;21.40;99.90;;;;;;4978145;28;20924;-70
2022/06/22 11:52:27;;;;;;;6.43;5.83;;;21.40;99.90;;;;;;4977691;28;20399;-68
2022/06/22 11:55:21;;;;;;;9.23;6.37;;;21.50;99.90;;;;;;4977643;28;20443;-69
2022/06/22 11:58:02;;;;;;;6.20;5.70;;;21.70;99.90;;;;;;4977871;28;20390;-70
2022/06/22 12:00:59;;;;;;;5.60;5.20;;;21.90;99.90;;;;;;4978167;28;20450;-70
2022/06/22 12:03:39;;;;;;;6.77;6.03;;;22.00;99.90;;;;;;4977373;28;20769;-70
2022/06/22 12:06:30;;;;;;;7.27;6.57;;;22.20;99.90;;;;;;4977503;28;20943;-67
2022/06/22 12:09:18;;;;;;;6.13;5.53;;;22.30;99.90;;;;;;4977770;28;20453;-68
2022/06/22 12:11:59;;;;;;;5.30;4.87;;;22.50;99.90;;;;;;4977586;28;20412;-68
2022/06/22 12:15:10;;;;;;;7.30;6.60;;;22.70;99.90;;;;;;4977070;28;20426;-69
2022/06/22 12:17:41;;;;;;;6.23;5.73;;;23.00;99.90;;;;;;4977334;28;20475;-69
2022/06/22 12:20:40;;;;;;;7.13;6.53;;;23.30;99.90;;;;;;4977343;28;20410;-68
2022/06/22 12:23:17;;;;;;;7.43;6.73;;;23.50;99.90;;;;;;4976965;28;20404;-68
2022/06/22 12:26:12;;;;;;;6.50;5.90;;;23.70;99.90;;;;;;4976129;28;20438;-68
2022/06/22 12:29:20;;;;;;;6.97;6.37;;;23.80;99.90;;;;;;4977122;28;20414;-70
2022/06/22 12:31:51;;;;;;;7.30;6.70;;;23.90;99.90;;;;;;4977702;28;20484;-69
2022/06/22 12:34:30;;;;;;;6.83;5.13;;;23.90;99.90;;;;;;4977041;28;20918;-68
2022/06/22 12:37:04;;;;;;;6.00;5.40;;;23.90;99.90;;;;;;4977002;28;21098;-69
2022/06/22 12:39:45;;;;;;;7.83;4.93;;;23.80;99.90;;;;;;4995566;28;20420;-68
2022/06/22 12:42:23;;;;;;;7.40;6.47;;;23.90;99.90;;;;;;4996052;28;20377;-72
2022/06/22 12:45:19;;;;;;;7.20;6.50;;;23.90;99.90;;;;;;4996540;28;20423;-70
2022/06/22 12:48:11;;;;;;;7.50;6.80;;;24.10;99.90;;;;;;4996337;28;20434;-71
2022/06/22 12:50:43;;;;;;;8.87;7.97;;;24.10;99.90;;;;;;4996491;28;20815;-68
2022/06/22 12:53:20;;;;;;;7.33;6.03;;;24.00;99.90;;;;;;5010973;28;20454;-68
2022/06/22 12:56:24;;;;;;;7.53;6.67;;;24.00;99.90;;;;;;5011102;28;20441;-67
2022/06/22 12:58:53;;;;;;;8.70;7.73;;;24.20;99.90;;;;;;4993183;28;20773;-71
2022/06/22 13:01:19;;;;;;;12.33;7.50;;;24.10;99.90;;;;;;4994270;28;20408;-69
2022/06/22 13:03:52;;;;;;;11.43;7.90;;;24.00;99.90;;;;;;4993658;28;20403;-69
2022/06/22 13:06:18;;;;;;;8.20;7.40;;;24.10;99.90;;;;;;4994109;28;20426;-69
2022/06/22 13:08:45;;;;;;;8.23;7.47;;;24.10;99.90;;;;;;4994080;28;20419;-70
2022/06/22 13:11:19;;;;;;;8.47;7.63;;;24.10;99.90;;;;;;4994015;28;20166;-72
2022/06/22 13:14:10;;;;;;;9.10;8.20;;;24.10;99.90;;;;;;5008893;28;20489;-70
2022/06/22 13:16:43;;;;;;;8.67;7.70;;;24.10;99.90;;;;;;4995417;28;20446;-70
2022/06/22 13:19:24;;;;;;;8.90;8.07;;;23.90;99.90;;;;;;4995694;28;20468;-70
2022/06/22 13:22:33;;;;;;;8.03;7.23;;;23.80;99.90;;;;;;4995674;28;20781;-71
2022/06/22 13:25:02;;;;;;;8.30;7.50;;;23.70;99.90;;;;;;4967767;28;20505;-70
2022/06/22 13:27:58;;;;;;;8.03;7.00;;;23.50;99.90;;;;;;4995641;28;20444;-70
2022/06/22 13:30:47;;;;;;;7.67;6.87;;;23.20;99.90;;;;;;4995697;28;20395;-71
2022/06/22 13:33:24;;;;;;;8.77;7.97;;;23.00;99.90;;;;;;4995399;28;20386;-72
2022/06/22 13:35:56;;;;;;;9.80;6.93;;;22.80;99.90;;;;;;4995366;28;20454;-69
2022/06/22 13:38:56;;;;;;;8.37;7.43;;;22.70;99.90;;;;;;4995721;28;20395;-72
2022/06/22 13:41:47;;;;;;;8.07;7.30;;;22.40;99.90;;;;;;5010473;28;20407;-70
2022/06/22 13:44:42;;;;;;;10.57;8.07;;;22.30;99.90;;;;;;4972198;28;20930;-72
2022/06/22 13:47:44;;;;;;;8.33;7.50;;;22.10;99.90;;;;;;4993998;28;20402;-70
2022/06/22 13:50:27;;;;;;;9.63;7.10;;;22.00;99.90;;;;;;4995223;28;20403;-71
2022/06/22 13:53:35;;;;;;;10.10;8.40;;;21.90;99.90;;;;;;4994998;28;20974;-70
2022/06/22 13:56:07;;;;;;;8.63;7.30;;;21.80;99.90;;;;;;4994735;28;20449;-71
2022/06/22 13:58:42;;;;;;;6.70;6.10;;;21.80;99.90;;;;;;4994584;28;20418;-72
2022/06/22 14:01:23;;;;;;;10.40;7.90;;;21.80;99.90;;;;;;4995204;28;20399;-73
2022/06/22 14:04:09;;;;;;;9.97;7.57;;;21.90;99.90;;;;;;4994639;28;20884;-69
2022/06/22 14:06:40;;;;;;;8.53;7.73;;;21.90;99.90;;;;;;4993688;28;21018;-74
2022/06/22 14:09:11;;;;;;;7.67;6.80;;;21.90;99.90;;;;;;4994129;28;20434;-72
2022/06/22 14:11:46;;;;;;;7.07;6.47;;;22.00;99.90;;;;;;4993266;28;20435;-71
2022/06/22 14:14:21;;;;;;;9.27;8.23;;;22.00;99.90;;;;;;4994330;28;20430;-71
2022/06/22 14:17:02;;;;;;;9.30;8.40;;;22.10;99.90;;;;;;4993916;28;20464;-69
2022/06/22 14:19:47;;;;;;;11.70;7.87;;;22.20;99.90;;;;;;4982008;28;20459;-72
2022/06/22 14:22:31;;;;;;;7.80;7.00;;;22.40;99.90;;;;;;4993902;28;20418;-70
2022/06/22 14:25:00;;;;;;;10.10;7.27;;;22.40;99.90;;;;;;4994587;28;20794;-70
2022/06/22 14:27:25;;;;;;;8.20;6.93;;;22.40;99.90;;;;;;4992730;28;20433;-71
2022/06/22 14:30:03;;;;;;;7.10;6.17;;;22.40;99.90;;;;;;4994573;28;20973;-70
2022/06/22 14:32:41;;;;;;;8.10;7.40;;;22.50;99.90;;;;;;4993943;28;20172;-69
2022/06/22 14:35:13;;;;;;;9.20;7.27;;;22.60;99.90;;;;;;4994381;28;20466;-70
2022/06/22 14:37:50;;;;;;;8.27;7.20;;;22.70;99.90;;;;;;5008776;28;20469;-71
2022/06/22 14:40:23;;;;;;;8.67;7.80;;;22.90;99.90;;;;;;4994223;28;20455;-71
2022/06/22 14:43:13;;;;;;;10.90;8.47;;;22.90;99.90;;;;;;4993903;28;20806;-70
2022/06/22 14:46:07;;;;;;;13.00;8.10;;;23.00;99.90;;;;;;4992063;28;20418;-69
2022/06/22 14:48:44;;;;;;;8.47;7.67;;;23.20;99.90;;;;;;4994214;28;20863;-70
2022/06/22 14:51:20;;;;;;;8.10;7.30;;;23.30;99.90;;;;;;4994217;28;20382;-70
2022/06/22 14:53:52;;;;;;;7.13;6.40;;;23.50;99.90;;;;;;4993416;28;20420;-71
2022/06/22 14:56:31;;;;;;;7.33;6.47;;;23.70;99.90;;;;;;4984823;28;20549;-71
2022/06/22 14:59:26;;;;;;;7.37;6.60;;;23.70;99.90;;;;;;4993927;28;20400;-69
2022/06/22 15:02:13;;;;;;;6.67;6.07;;;23.60;99.90;;;;;;4992490;28;20537;-70
2022/06/22 15:05:04;;;;;;;7.30;6.70;;;23.70;99.90;;;;;;4993028;28;20468;-70
2022/06/22 15:07:44;;;;;;;9.47;6.00;;;23.60;99.90;;;;;;4993458;28;20408;-70
2022/06/22 15:10:36;;;;;;;7.37;6.67;;;23.70;99.90;;;;;;4993902;28;20407;-70
2022/06/22 15:13:08;;;;;;;7.67;6.57;;;23.70;99.90;;;;;;4993284;28;20773;-70
2022/06/22 15:15:52;;;;;;;9.13;7.80;;;23.70;99.90;;;;;;4993481;28;20436;-72
2022/06/22 15:18:34;;;;;;;7.07;6.47;;;23.60;99.90;;;;;;4992664;28;20426;-72
2022/06/22 15:21:12;;;;;;;9.17;8.27;;;23.60;99.90;;;;;;4993880;28;20395;-71
2022/06/22 15:24:02;;;;;;;12.07;6.40;;;23.70;99.90;;;;;;4993032;28;20470;-71
2022/06/22 15:26:57;;;;;;;8.00;7.20;;;23.70;99.90;;;;;;4993519;28;20402;-69
2022/06/22 15:29:35;;;;;;;7.40;6.70;;;23.70;99.90;;;;;;4991584;28;20419;-70
2022/06/22 15:32:07;;;;;;;11.73;6.87;;;23.60;99.90;;;;;;4993540;28;20804;-70
2022/06/22 15:34:56;;;;;;;6.07;5.57;;;23.50;99.90;;;;;;4991651;28;20949;-69
2022/06/22 15:37:40;;;;;;;7.63;6.13;;;23.50;99.90;;;;;;4993615;28;20425;-72
2022/06/22 15:40:12;;;;;;;8.17;7.37;;;23.50;99.90;;;;;;4993559;28;20408;-70
2022/06/22 15:43:12;;;;;;;9.30;7.50;;;23.50;99.90;;;;;;5008013;28;20381;-70
2022/06/22 15:45:40;;;;;;;11.00;8.50;;;23.60;99.90;;;;;;5008229;28;20425;-69
2022/06/22 15:48:16;;;;;;;8.43;7.60;;;23.50;99.90;;;;;;4993628;28;20387;-70
2022/06/22 15:50:48;;;;;;;9.53;7.00;;;23.50;99.90;;;;;;4992761;28;20882;-70
2022/06/22 15:53:36;;;;;;;9.03;7.00;;;23.50;99.90;;;;;;4993043;28;20407;-70
2022/06/22 15:56:11;;;;;;;10.13;8.00;;;23.60;99.90;;;;;;4973836;28;20459;-69
2022/06/22 15:59:04;;;;;;;9.10;7.60;;;23.70;99.90;;;;;;4973931;28;20377;-69
2022/06/22 16:01:39;;;;;;;8.17;7.40;;;23.70;99.90;;;;;;4966808;28;20420;-70
2022/06/22 16:04:19;;;;;;;8.73;6.23;;;23.70;99.90;;;;;;5002509;28;20838;-70
2022/06/22 16:06:57;;;;;;;6.43;5.83;;;23.80;99.90;;;;;;4993115;28;20426;-69
2022/06/22 16:09:36;;;;;;;7.67;6.90;;;23.90;99.90;;;;;;4993322;28;21127;-68
2022/06/22 16:15:23;;;;;;;8.40;6.63;;;24.10;99.90;;;;;;4993415;28;20457;-68
2022/06/22 16:18:12;;;;;;;7.60;5.60;;;24.10;99.90;;;;;;4996895;28;20887;-69
2022/06/22 16:20:49;;;;;;;8.50;6.30;;;24.10;99.90;;;;;;4996944;28;20730;-69
2022/06/22 16:23:30;;;;;;;7.33;6.60;;;24.10;99.90;;;;;;4994827;28;20435;-69
2022/06/22 16:26:03;;;;;;;12.60;6.13;;;24.00;99.90;;;;;;4996573;28;20795;-68
2022/06/22 16:28:39;;;;;;;5.90;5.40;;;23.90;99.90;;;;;;4996827;28;20388;-69
2022/06/22 16:31:15;;;;;;;9.07;5.73;;;23.70;99.90;;;;;;4996526;28;20496;-69
2022/06/22 16:34:04;;;;;;;5.83;4.43;;;23.60;99.90;;;;;;4994298;28;20443;-67
2022/06/22 16:36:46;;;;;;;5.70;4.17;;;23.50;99.90;;;;;;4996438;28;20506;-70
2022/06/22 16:39:46;;;;;;;6.03;5.27;;;23.40;99.90;;;;;;4997049;28;20391;-67
2022/06/22 16:42:29;;;;;;;4.90;4.50;;;23.30;99.90;;;;;;4992865;28;20788;-67
2022/06/22 16:45:06;;;;;;;5.57;4.97;;;23.10;99.90;;;;;;4993943;28;20419;-66
2022/06/22 16:47:49;;;;;;;9.90;5.60;;;23.10;99.90;;;;;;4996576;28;20408;-67
2022/06/22 16:50:18;;;;;;;4.63;4.23;;;23.00;99.90;;;;;;4996142;28;20420;-67
2022/06/22 16:52:47;;;;;;;6.73;3.33;;;22.80;99.90;;;;;;4995438;28;20438;-65
2022/06/22 16:55:30;;;;;;;7.60;4.30;;;22.60;99.90;;;;;;4995753;28;20454;-69
2022/06/22 16:57:57;;;;;;;6.10;3.90;;;22.30;99.90;;;;;;4996039;28;20403;-70
2022/06/22 17:00:27;;;;;;;5.27;3.70;;;22.00;99.90;;;;;;4995825;28;20374;-71
2022/06/22 17:03:07;;;;;;;5.07;4.67;;;21.80;99.90;;;;;;4995301;28;20418;-70
2022/06/22 17:05:47;;;;;;;7.37;3.70;;;21.50;99.90;;;;;;4995322;28;20584;-72
2022/06/22 17:08:28;;;;;;;4.57;4.17;;;21.30;99.90;;;;;;4995930;28;20402;-71
2022/06/22 17:10:58;;;;;;;7.80;4.27;;;21.10;99.90;;;;;;4996262;28;20373;-71
2022/06/22 17:13:34;;;;;;;7.57;5.63;;;21.00;99.90;;;;;;4995126;28;20419;-75
2022/06/22 17:16:14;;;;;;;7.00;4.87;;;20.90;99.90;;;;;;4995239;28;20469;-71
2022/06/22 17:18:57;;;;;;;5.07;4.53;;;20.80;99.90;;;;;;4995382;28;20540;-69
2022/06/22 17:21:36;;;;;;;10.90;5.53;;;20.70;99.90;;;;;;4995011;28;20985;-70
2022/06/22 17:24:39;;;;;;;8.50;6.80;;;20.70;99.90;;;;;;4994407;28;20403;-70
2022/06/22 17:27:13;;;;;;;7.73;5.70;;;20.60;99.90;;;;;;4995040;28;20732;-69
2022/06/22 17:29:57;;;;;;;8.53;5.53;;;20.50;99.90;;;;;;4995226;28;20414;-69
2022/06/22 17:32:28;;;;;;;7.37;5.07;;;20.50;99.90;;;;;;4975460;28;20422;-69
2022/06/22 17:35:19;;;;;;;7.73;6.03;;;20.50;99.90;;;;;;4983988;28;20440;-68
2022/06/22 17:38:06;;;;;;;7.50;5.80;;;20.50;99.90;;;;;;4993772;28;20446;-70
2022/06/22 17:40:47;;;;;;;9.17;6.47;;;20.50;99.90;;;;;;4989375;28;20411;-69
2022/06/22 17:43:33;;;;;;;13.90;7.30;;;20.40;99.90;;;;;;4990919;28;20422;-71
2022/06/22 17:46:15;;;;;;;8.40;6.90;;;20.40;99.90;;;;;;4985840;28;20810;-71
2022/06/22 17:49:06;;;;;;;12.80;8.83;;;20.50;99.90;;;;;;4976062;28;20538;-66
2022/06/22 17:52:00;;;;;;;10.87;8.53;;;20.50;99.90;;;;;;4989341;28;20439;-68
2022/06/22 17:54:33;;;;;;;9.10;7.30;;;20.50;99.90;;;;;;4979447;28;20424;-68
2022/06/22 17:57:19;;;;;;;13.50;7.87;;;20.40;99.90;;;;;;4989061;28;20798;-70
2022/06/22 17:59:55;;;;;;;8.30;6.53;;;20.40;99.90;;;;;;4994313;28;20411;-67
2022/06/22 18:02:45;;;;;;;7.37;5.70;;;20.40;99.90;;;;;;4993924;28;20483;-68
2022/06/22 18:05:35;;;;;;;7.33;5.87;;;20.40;99.90;;;;;;4994335;28;20517;-67
2022/06/22 18:08:29;;;;;;;10.60;6.63;;;20.30;99.90;;;;;;4991024;28;20445;-69
2022/06/22 18:11:08;;;;;;;7.17;5.60;;;20.30;99.90;;;;;;5000072;28;20882;-68
2022/06/22 18:13:41;;;;;;;8.33;6.33;;;20.30;99.90;;;;;;4993543;28;20400;-68
2022/06/22 18:16:09;;;;;;;6.97;5.70;;;20.20;99.90;;;;;;4982973;28;20455;-69
2022/06/22 18:18:41;;;;;;;8.10;6.40;;;20.20;99.90;;;;;;4993536;28;20805;-67
2022/06/22 18:21:19;;;;;;;4.73;4.33;;;20.20;99.90;;;;;;4976461;28;20430;-68